sensor_id;sensor_type;location;lat;lon;timestamp;P1;durP1;ratioP1;P2;durP2;ratioP2
20441;SDS011;10380;52.102;20.614;2023-07-16T00:01:57;5.35;;;3.90;;
20441;SDS011;10380;52.102;20.614;2023-07-16T00:04:24;4.70;;;4.30;;
20441;SDS011;10380;52.102;20.614;2023-07-16T00:06:51;5.53;;;4.45;;
20441;SDS011;10380;52.102;20.614;2023-07-16T00:09:18;5.00;;;4.22;;
20441;SDS011;10380;52.102;20.614;2023-07-16T00:11:45;13.18;;;5.32;;
20441;SDS011;10380;52.102;20.614;2023-07-16T00:14:11;6.47;;;4.60;;
20441;SDS011;10380;52.102;20.614;2023-07-16T00:16:38;5.80;;;4.45;;
20441;SDS011;10380;52.102;20.614;2023-07-16T00:19:05;5.60;;;4.05;;
20441;SDS011;10380;52.102;20.614;2023-07-16T00:21:32;5.43;;;3.85;;
20441;SDS011;10380;52.102;20.614;2023-07-16T00:23:59;4.53;;;3.95;;
20441;SDS011;10380;52.102;20.614;2023-07-16T00:26:26;5.38;;;4.28;;
20441;SDS011;10380;52.102;20.614;2023-07-16T00:28:52;8.82;;;4.38;;
20441;SDS011;10380;52.102;20.614;2023-07-16T00:31:19;6.22;;;4.30;;
20441;SDS011;10380;52.102;20.614;2023-07-16T00:33:46;7.15;;;4.65;;
20441;SDS011;10380;52.102;20.614;2023-07-16T00:36:13;4.93;;;4.43;;
20441;SDS011;10380;52.102;20.614;2023-07-16T00:38:40;5.47;;;4.55;;
20441;SDS011;10380;52.102;20.614;2023-07-16T00:41:08;4.90;;;4.40;;
20441;SDS011;10380;52.102;20.614;2023-07-16T00:43:35;4.97;;;4.47;;
20441;SDS011;10380;52.102;20.614;2023-07-16T00:46:02;6.95;;;4.43;;
20441;SDS011;10380;52.102;20.614;2023-07-16T00:48:29;7.93;;;5.25;;
20441;SDS011;10380;52.102;20.614;2023-07-16T00:50:56;5.72;;;5.05;;
20441;SDS011;10380;52.102;20.614;2023-07-16T00:53:23;5.47;;;4.93;;
20441;SDS011;10380;52.102;20.614;2023-07-16T00:55:50;6.50;;;4.90;;
20441;SDS011;10380;52.102;20.614;2023-07-16T00:58:17;8.75;;;5.43;;
20441;SDS011;10380;52.102;20.614;2023-07-16T01:00:44;5.68;;;4.97;;
20441;SDS011;10380;52.102;20.614;2023-07-16T01:03:11;5.25;;;4.45;;
20441;SDS011;10380;52.102;20.614;2023-07-16T01:05:59;8.68;;;4.90;;
20441;SDS011;10380;52.102;20.614;2023-07-16T01:08:46;5.75;;;4.78;;
20441;SDS011;10380;52.102;20.614;2023-07-16T01:11:27;7.95;;;5.40;;
20441;SDS011;10380;52.102;20.614;2023-07-16T01:13:55;6.57;;;4.82;;
20441;SDS011;10380;52.102;20.614;2023-07-16T01:16:23;5.82;;;5.07;;
20441;SDS011;10380;52.102;20.614;2023-07-16T01:18:51;7.45;;;5.32;;
20441;SDS011;10380;52.102;20.614;2023-07-16T01:21:18;5.75;;;5.00;;
20441;SDS011;10380;52.102;20.614;2023-07-16T01:29:31;6.88;;;4.72;;
20441;SDS011;10380;52.102;20.614;2023-07-16T01:32:07;6.35;;;4.95;;
20441;SDS011;10380;52.102;20.614;2023-07-16T01:34:36;5.85;;;4.65;;
20441;SDS011;10380;52.102;20.614;2023-07-16T01:37:04;5.70;;;5.18;;
20441;SDS011;10380;52.102;20.614;2023-07-16T01:39:32;6.82;;;4.72;;
20441;SDS011;10380;52.102;20.614;2023-07-16T01:42:02;6.78;;;5.35;;
20441;SDS011;10380;52.102;20.614;2023-07-16T01:44:29;6.30;;;5.65;;
20441;SDS011;10380;52.102;20.614;2023-07-16T01:47:03;5.03;;;4.10;;
20441;SDS011;10380;52.102;20.614;2023-07-16T01:49:38;6.88;;;4.55;;
20441;SDS011;10380;52.102;20.614;2023-07-16T01:52:06;6.35;;;5.75;;
20441;SDS011;10380;52.102;20.614;2023-07-16T01:54:33;5.10;;;4.55;;
20441;SDS011;10380;52.102;20.614;2023-07-16T01:57:00;6.70;;;5.18;;
20441;SDS011;10380;52.102;20.614;2023-07-16T01:59:27;5.65;;;4.88;;
20441;SDS011;10380;52.102;20.614;2023-07-16T02:01:54;5.95;;;4.85;;
20441;SDS011;10380;52.102;20.614;2023-07-16T02:04:21;5.78;;;4.63;;
20441;SDS011;10380;52.102;20.614;2023-07-16T02:06:48;5.68;;;4.97;;
20441;SDS011;10380;52.102;20.614;2023-07-16T02:09:15;7.65;;;5.78;;
20441;SDS011;10380;52.102;20.614;2023-07-16T02:11:41;6.75;;;5.53;;
20441;SDS011;10380;52.102;20.614;2023-07-16T02:14:08;6.10;;;5.07;;
20441;SDS011;10380;52.102;20.614;2023-07-16T02:16:35;8.25;;;6.30;;
20441;SDS011;10380;52.102;20.614;2023-07-16T02:19:02;6.25;;;5.65;;
20441;SDS011;10380;52.102;20.614;2023-07-16T02:21:29;9.48;;;5.43;;
20441;SDS011;10380;52.102;20.614;2023-07-16T02:23:56;7.68;;;5.85;;
20441;SDS011;10380;52.102;20.614;2023-07-16T02:26:22;7.50;;;5.30;;
20441;SDS011;10380;52.102;20.614;2023-07-16T02:28:49;6.80;;;5.28;;
20441;SDS011;10380;52.102;20.614;2023-07-16T02:31:16;7.20;;;5.25;;
20441;SDS011;10380;52.102;20.614;2023-07-16T02:33:43;6.43;;;5.55;;
20441;SDS011;10380;52.102;20.614;2023-07-16T02:36:10;6.05;;;5.45;;
20441;SDS011;10380;52.102;20.614;2023-07-16T02:38:37;6.80;;;5.25;;
20441;SDS011;10380;52.102;20.614;2023-07-16T02:41:03;6.43;;;5.72;;
20441;SDS011;10380;52.102;20.614;2023-07-16T02:43:30;6.28;;;5.75;;
20441;SDS011;10380;52.102;20.614;2023-07-16T02:45:57;8.02;;;5.57;;
20441;SDS011;10380;52.102;20.614;2023-07-16T02:48:24;7.22;;;5.50;;
20441;SDS011;10380;52.102;20.614;2023-07-16T02:50:50;6.82;;;5.80;;
20441;SDS011;10380;52.102;20.614;2023-07-16T02:53:17;7.63;;;5.78;;
20441;SDS011;10380;52.102;20.614;2023-07-16T02:55:45;10.35;;;6.25;;
20441;SDS011;10380;52.102;20.614;2023-07-16T02:58:11;7.85;;;5.80;;
20441;SDS011;10380;52.102;20.614;2023-07-16T03:00:38;6.50;;;5.78;;
20441;SDS011;10380;52.102;20.614;2023-07-16T03:03:05;7.07;;;5.45;;
20441;SDS011;10380;52.102;20.614;2023-07-16T03:05:32;8.57;;;5.45;;
20441;SDS011;10380;52.102;20.614;2023-07-16T03:07:59;6.90;;;5.50;;
20441;SDS011;10380;52.102;20.614;2023-07-16T03:10:26;8.18;;;6.80;;
20441;SDS011;10380;52.102;20.614;2023-07-16T03:12:53;6.97;;;5.55;;
20441;SDS011;10380;52.102;20.614;2023-07-16T03:15:20;7.53;;;5.20;;
20441;SDS011;10380;52.102;20.614;2023-07-16T03:17:47;7.45;;;5.93;;
20441;SDS011;10380;52.102;20.614;2023-07-16T03:20:14;6.00;;;5.40;;
20441;SDS011;10380;52.102;20.614;2023-07-16T03:22:41;7.53;;;5.57;;
20441;SDS011;10380;52.102;20.614;2023-07-16T03:25:07;8.63;;;5.63;;
20441;SDS011;10380;52.102;20.614;2023-07-16T03:27:34;6.65;;;5.97;;
20441;SDS011;10380;52.102;20.614;2023-07-16T03:30:02;7.72;;;5.47;;
20441;SDS011;10380;52.102;20.614;2023-07-16T03:32:30;6.80;;;5.75;;
20441;SDS011;10380;52.102;20.614;2023-07-16T03:35:16;6.93;;;6.10;;
20441;SDS011;10380;52.102;20.614;2023-07-16T03:37:43;7.90;;;5.75;;
20441;SDS011;10380;52.102;20.614;2023-07-16T03:40:17;6.50;;;4.82;;
20441;SDS011;10380;52.102;20.614;2023-07-16T03:42:49;7.88;;;5.32;;
20441;SDS011;10380;52.102;20.614;2023-07-16T03:45:15;6.47;;;5.50;;
20441;SDS011;10380;52.102;20.614;2023-07-16T03:47:42;6.40;;;5.55;;
20441;SDS011;10380;52.102;20.614;2023-07-16T03:50:09;6.97;;;5.55;;
20441;SDS011;10380;52.102;20.614;2023-07-16T03:52:36;7.03;;;4.90;;
20441;SDS011;10380;52.102;20.614;2023-07-16T03:55:03;7.53;;;5.47;;
20441;SDS011;10380;52.102;20.614;2023-07-16T03:57:30;6.75;;;5.20;;
20441;SDS011;10380;52.102;20.614;2023-07-16T03:59:57;5.63;;;5.13;;
20441;SDS011;10380;52.102;20.614;2023-07-16T04:02:24;8.90;;;5.63;;
20441;SDS011;10380;52.102;20.614;2023-07-16T04:04:51;10.57;;;5.40;;
20441;SDS011;10380;52.102;20.614;2023-07-16T04:07:18;8.07;;;5.72;;
20441;SDS011;10380;52.102;20.614;2023-07-16T04:09:45;7.05;;;5.28;;
20441;SDS011;10380;52.102;20.614;2023-07-16T04:12:13;6.95;;;5.05;;
20441;SDS011;10380;52.102;20.614;2023-07-16T04:14:39;7.10;;;5.82;;
20441;SDS011;10380;52.102;20.614;2023-07-16T04:17:06;6.95;;;5.43;;
20441;SDS011;10380;52.102;20.614;2023-07-16T04:19:33;10.52;;;6.13;;
20441;SDS011;10380;52.102;20.614;2023-07-16T04:22:00;7.88;;;6.88;;
20441;SDS011;10380;52.102;20.614;2023-07-16T04:24:27;7.72;;;5.88;;
20441;SDS011;10380;52.102;20.614;2023-07-16T04:26:54;6.28;;;5.10;;
20441;SDS011;10380;52.102;20.614;2023-07-16T04:29:21;5.85;;;5.22;;
20441;SDS011;10380;52.102;20.614;2023-07-16T04:31:48;8.93;;;6.20;;
20441;SDS011;10380;52.102;20.614;2023-07-16T04:34:15;7.65;;;5.57;;
20441;SDS011;10380;52.102;20.614;2023-07-16T04:36:42;6.32;;;5.57;;
20441;SDS011;10380;52.102;20.614;2023-07-16T04:39:10;7.00;;;6.10;;
20441;SDS011;10380;52.102;20.614;2023-07-16T04:41:37;6.60;;;5.45;;
20441;SDS011;10380;52.102;20.614;2023-07-16T04:44:04;5.60;;;5.00;;
20441;SDS011;10380;52.102;20.614;2023-07-16T04:46:31;7.10;;;6.13;;
20441;SDS011;10380;52.102;20.614;2023-07-16T04:48:58;6.32;;;5.40;;
20441;SDS011;10380;52.102;20.614;2023-07-16T04:51:25;5.53;;;4.95;;
20441;SDS011;10380;52.102;20.614;2023-07-16T04:53:52;6.15;;;5.32;;
20441;SDS011;10380;52.102;20.614;2023-07-16T04:56:19;6.50;;;5.15;;
20441;SDS011;10380;52.102;20.614;2023-07-16T04:58:46;7.82;;;5.40;;
20441;SDS011;10380;52.102;20.614;2023-07-16T05:01:13;7.32;;;5.57;;
20441;SDS011;10380;52.102;20.614;2023-07-16T05:03:40;5.95;;;5.35;;
20441;SDS011;10380;52.102;20.614;2023-07-16T05:06:07;7.70;;;5.60;;
20441;SDS011;10380;52.102;20.614;2023-07-16T05:08:33;5.63;;;4.72;;
20441;SDS011;10380;52.102;20.614;2023-07-16T05:11:01;5.20;;;4.70;;
20441;SDS011;10380;52.102;20.614;2023-07-16T05:13:28;6.53;;;5.10;;
20441;SDS011;10380;52.102;20.614;2023-07-16T05:15:55;6.43;;;5.75;;
20441;SDS011;10380;52.102;20.614;2023-07-16T05:18:22;6.25;;;5.50;;
20441;SDS011;10380;52.102;20.614;2023-07-16T05:20:49;5.70;;;5.20;;
20441;SDS011;10380;52.102;20.614;2023-07-16T05:23:15;6.82;;;4.80;;
20441;SDS011;10380;52.102;20.614;2023-07-16T05:25:46;6.57;;;5.40;;
20441;SDS011;10380;52.102;20.614;2023-07-16T05:28:14;5.80;;;4.88;;
20441;SDS011;10380;52.102;20.614;2023-07-16T05:30:41;7.65;;;6.20;;
20441;SDS011;10380;52.102;20.614;2023-07-16T05:33:09;5.65;;;5.15;;
20441;SDS011;10380;52.102;20.614;2023-07-16T05:35:38;6.10;;;5.20;;
20441;SDS011;10380;52.102;20.614;2023-07-16T05:38:05;7.18;;;5.80;;
20441;SDS011;10380;52.102;20.614;2023-07-16T05:40:33;5.88;;;4.38;;
20441;SDS011;10380;52.102;20.614;2023-07-16T05:43:00;6.47;;;4.82;;
20441;SDS011;10380;52.102;20.614;2023-07-16T05:45:27;7.43;;;5.43;;
20441;SDS011;10380;52.102;20.614;2023-07-16T05:47:54;6.32;;;4.35;;
20441;SDS011;10380;52.102;20.614;2023-07-16T05:50:20;6.88;;;5.35;;
20441;SDS011;10380;52.102;20.614;2023-07-16T05:52:47;5.43;;;4.65;;
20441;SDS011;10380;52.102;20.614;2023-07-16T05:55:15;7.50;;;5.22;;
20441;SDS011;10380;52.102;20.614;2023-07-16T05:57:42;7.78;;;5.40;;
20441;SDS011;10380;52.102;20.614;2023-07-16T06:00:09;6.82;;;5.15;;
20441;SDS011;10380;52.102;20.614;2023-07-16T06:02:36;8.52;;;4.95;;
20441;SDS011;10380;52.102;20.614;2023-07-16T06:05:03;5.80;;;5.25;;
20441;SDS011;10380;52.102;20.614;2023-07-16T06:07:31;5.30;;;4.50;;
20441;SDS011;10380;52.102;20.614;2023-07-16T06:09:58;4.93;;;4.47;;
20441;SDS011;10380;52.102;20.614;2023-07-16T06:12:25;5.22;;;4.65;;
20441;SDS011;10380;52.102;20.614;2023-07-16T06:14:52;5.63;;;4.78;;
20441;SDS011;10380;52.102;20.614;2023-07-16T06:17:20;6.63;;;4.70;;
20441;SDS011;10380;52.102;20.614;2023-07-16T06:19:47;5.90;;;4.72;;
20441;SDS011;10380;52.102;20.614;2023-07-16T06:22:16;6.97;;;4.70;;
20441;SDS011;10380;52.102;20.614;2023-07-16T06:24:43;5.32;;;4.40;;
20441;SDS011;10380;52.102;20.614;2023-07-16T06:27:10;5.07;;;4.32;;
20441;SDS011;10380;52.102;20.614;2023-07-16T06:29:37;5.85;;;4.47;;
20441;SDS011;10380;52.102;20.614;2023-07-16T06:32:04;4.35;;;3.95;;
20441;SDS011;10380;52.102;20.614;2023-07-16T06:34:31;4.80;;;4.30;;
20441;SDS011;10380;52.102;20.614;2023-07-16T06:36:58;6.07;;;4.60;;
20441;SDS011;10380;52.102;20.614;2023-07-16T06:39:25;5.75;;;4.85;;
20441;SDS011;10380;52.102;20.614;2023-07-16T06:41:52;8.18;;;4.38;;
20441;SDS011;10380;52.102;20.614;2023-07-16T06:44:19;5.70;;;4.80;;
20441;SDS011;10380;52.102;20.614;2023-07-16T06:46:45;4.97;;;4.40;;
20441;SDS011;10380;52.102;20.614;2023-07-16T06:49:12;4.55;;;3.95;;
20441;SDS011;10380;52.102;20.614;2023-07-16T06:51:39;6.30;;;3.95;;
20441;SDS011;10380;52.102;20.614;2023-07-16T06:54:06;6.45;;;4.30;;
20441;SDS011;10380;52.102;20.614;2023-07-16T06:56:33;5.78;;;3.97;;
20441;SDS011;10380;52.102;20.614;2023-07-16T06:59:00;5.05;;;3.80;;
20441;SDS011;10380;52.102;20.614;2023-07-16T07:01:27;7.55;;;4.10;;
20441;SDS011;10380;52.102;20.614;2023-07-16T07:03:54;5.72;;;4.70;;
20441;SDS011;10380;52.102;20.614;2023-07-16T07:06:21;5.55;;;3.65;;
20441;SDS011;10380;52.102;20.614;2023-07-16T07:08:51;4.20;;;3.78;;
20441;SDS011;10380;52.102;20.614;2023-07-16T07:11:18;5.00;;;4.50;;
20441;SDS011;10380;52.102;20.614;2023-07-16T07:13:45;3.90;;;3.58;;
20441;SDS011;10380;52.102;20.614;2023-07-16T07:16:12;6.03;;;3.83;;
20441;SDS011;10380;52.102;20.614;2023-07-16T07:18:39;6.90;;;4.07;;
20441;SDS011;10380;52.102;20.614;2023-07-16T07:21:06;6.70;;;4.25;;
20441;SDS011;10380;52.102;20.614;2023-07-16T07:23:33;3.85;;;3.45;;
20441;SDS011;10380;52.102;20.614;2023-07-16T07:25:59;4.38;;;4.07;;
20441;SDS011;10380;52.102;20.614;2023-07-16T07:28:26;4.35;;;3.95;;
20441;SDS011;10380;52.102;20.614;2023-07-16T07:30:54;5.45;;;4.57;;
20441;SDS011;10380;52.102;20.614;2023-07-16T07:33:21;9.00;;;4.68;;
20441;SDS011;10380;52.102;20.614;2023-07-16T07:35:48;6.63;;;4.80;;
20441;SDS011;10380;52.102;20.614;2023-07-16T07:38:15;4.70;;;4.07;;
20441;SDS011;10380;52.102;20.614;2023-07-16T07:40:42;4.80;;;4.40;;
20441;SDS011;10380;52.102;20.614;2023-07-16T07:43:10;7.25;;;5.10;;
20441;SDS011;10380;52.102;20.614;2023-07-16T07:45:36;7.00;;;5.13;;
20441;SDS011;10380;52.102;20.614;2023-07-16T07:48:03;5.45;;;4.90;;
20441;SDS011;10380;52.102;20.614;2023-07-16T07:50:32;5.57;;;4.68;;
20441;SDS011;10380;52.102;20.614;2023-07-16T07:52:59;6.07;;;4.78;;
20441;SDS011;10380;52.102;20.614;2023-07-16T07:55:26;7.82;;;5.05;;
20441;SDS011;10380;52.102;20.614;2023-07-16T07:57:52;7.35;;;5.00;;
20441;SDS011;10380;52.102;20.614;2023-07-16T08:00:20;6.20;;;5.03;;
20441;SDS011;10380;52.102;20.614;2023-07-16T08:02:47;6.90;;;5.65;;
20441;SDS011;10380;52.102;20.614;2023-07-16T08:05:14;7.93;;;4.65;;
20441;SDS011;10380;52.102;20.614;2023-07-16T08:07:41;6.00;;;5.15;;
20441;SDS011;10380;52.102;20.614;2023-07-16T08:10:08;10.70;;;5.78;;
20441;SDS011;10380;52.102;20.614;2023-07-16T08:12:35;5.80;;;4.82;;
20441;SDS011;10380;52.102;20.614;2023-07-16T08:15:01;5.65;;;5.03;;
20441;SDS011;10380;52.102;20.614;2023-07-16T08:17:29;7.22;;;5.35;;
20441;SDS011;10380;52.102;20.614;2023-07-16T08:19:57;6.82;;;5.18;;
20441;SDS011;10380;52.102;20.614;2023-07-16T08:22:24;7.65;;;5.32;;
20441;SDS011;10380;52.102;20.614;2023-07-16T08:24:51;7.05;;;5.70;;
20441;SDS011;10380;52.102;20.614;2023-07-16T08:27:18;5.63;;;5.13;;
20441;SDS011;10380;52.102;20.614;2023-07-16T08:29:46;8.50;;;5.55;;
20441;SDS011;10380;52.102;20.614;2023-07-16T08:32:12;7.47;;;5.70;;
20441;SDS011;10380;52.102;20.614;2023-07-16T08:34:39;9.88;;;5.53;;
20441;SDS011;10380;52.102;20.614;2023-07-16T08:37:06;7.70;;;5.95;;
20441;SDS011;10380;52.102;20.614;2023-07-16T08:39:33;7.00;;;5.32;;
20441;SDS011;10380;52.102;20.614;2023-07-16T08:42:00;6.55;;;4.93;;
20441;SDS011;10380;52.102;20.614;2023-07-16T08:44:27;6.20;;;5.00;;
20441;SDS011;10380;52.102;20.614;2023-07-16T08:46:56;6.25;;;5.10;;
20441;SDS011;10380;52.102;20.614;2023-07-16T08:49:23;10.23;;;5.22;;
20441;SDS011;10380;52.102;20.614;2023-07-16T08:51:51;9.68;;;5.40;;
20441;SDS011;10380;52.102;20.614;2023-07-16T08:54:20;10.32;;;5.32;;
20441;SDS011;10380;52.102;20.614;2023-07-16T08:56:48;7.05;;;5.40;;
20441;SDS011;10380;52.102;20.614;2023-07-16T08:59:17;8.07;;;5.10;;
20441;SDS011;10380;52.102;20.614;2023-07-16T09:01:46;5.78;;;4.72;;
20441;SDS011;10380;52.102;20.614;2023-07-16T09:04:15;6.47;;;5.10;;
20441;SDS011;10380;52.102;20.614;2023-07-16T09:06:42;6.50;;;4.85;;
20441;SDS011;10380;52.102;20.614;2023-07-16T09:09:19;6.22;;;4.72;;
20441;SDS011;10380;52.102;20.614;2023-07-16T09:11:48;9.82;;;6.00;;
20441;SDS011;10380;52.102;20.614;2023-07-16T09:14:18;5.85;;;5.28;;
20441;SDS011;10380;52.102;20.614;2023-07-16T09:16:49;7.00;;;5.00;;
20441;SDS011;10380;52.102;20.614;2023-07-16T09:19:19;7.57;;;5.22;;
20441;SDS011;10380;52.102;20.614;2023-07-16T09:21:50;6.20;;;5.55;;
20441;SDS011;10380;52.102;20.614;2023-07-16T09:24:18;8.07;;;6.25;;
20441;SDS011;10380;52.102;20.614;2023-07-16T09:26:50;6.32;;;5.50;;
20441;SDS011;10380;52.102;20.614;2023-07-16T09:29:19;8.15;;;5.40;;
20441;SDS011;10380;52.102;20.614;2023-07-16T09:34:22;9.45;;;5.57;;
20441;SDS011;10380;52.102;20.614;2023-07-16T09:36:50;6.13;;;5.13;;
20441;SDS011;10380;52.102;20.614;2023-07-16T09:39:17;5.35;;;4.85;;
20441;SDS011;10380;52.102;20.614;2023-07-16T09:41:48;5.75;;;5.15;;
20441;SDS011;10380;52.102;20.614;2023-07-16T09:44:16;7.13;;;5.05;;
20441;SDS011;10380;52.102;20.614;2023-07-16T09:46:44;11.32;;;6.28;;
20441;SDS011;10380;52.102;20.614;2023-07-16T09:49:14;6.68;;;5.13;;
20441;SDS011;10380;52.102;20.614;2023-07-16T09:51:42;6.60;;;5.68;;
20441;SDS011;10380;52.102;20.614;2023-07-16T09:54:12;5.97;;;5.30;;
20441;SDS011;10380;52.102;20.614;2023-07-16T09:56:43;6.50;;;4.90;;
20441;SDS011;10380;52.102;20.614;2023-07-16T09:59:13;5.78;;;5.28;;
20441;SDS011;10380;52.102;20.614;2023-07-16T10:01:42;6.05;;;5.32;;
20441;SDS011;10380;52.102;20.614;2023-07-16T10:04:18;8.48;;;5.43;;
20441;SDS011;10380;52.102;20.614;2023-07-16T10:06:51;6.03;;;5.10;;
20441;SDS011;10380;52.102;20.614;2023-07-16T10:14:43;5.75;;;5.25;;
20441;SDS011;10380;52.102;20.614;2023-07-16T10:17:12;5.70;;;5.10;;
20441;SDS011;10380;52.102;20.614;2023-07-16T10:19:56;6.90;;;4.97;;
20441;SDS011;10380;52.102;20.614;2023-07-16T10:22:46;5.47;;;4.95;;
20441;SDS011;10380;52.102;20.614;2023-07-16T10:27:46;5.25;;;4.30;;
20441;SDS011;10380;52.102;20.614;2023-07-16T10:30:15;6.63;;;4.85;;
20441;SDS011;10380;52.102;20.614;2023-07-16T10:32:42;6.05;;;5.32;;
20441;SDS011;10380;52.102;20.614;2023-07-16T10:35:10;5.65;;;4.85;;
20441;SDS011;10380;52.102;20.614;2023-07-16T10:37:38;7.70;;;4.95;;
20441;SDS011;10380;52.102;20.614;2023-07-16T10:40:09;7.97;;;5.03;;
20441;SDS011;10380;52.102;20.614;2023-07-16T10:42:39;5.47;;;4.55;;
20441;SDS011;10380;52.102;20.614;2023-07-16T10:45:07;6.20;;;5.38;;
20441;SDS011;10380;52.102;20.614;2023-07-16T10:47:39;8.85;;;5.07;;
20441;SDS011;10380;52.102;20.614;2023-07-16T10:50:18;5.63;;;4.82;;
20441;SDS011;10380;52.102;20.614;2023-07-16T10:52:54;6.80;;;5.47;;
20441;SDS011;10380;52.102;20.614;2023-07-16T10:55:23;7.38;;;5.80;;
20441;SDS011;10380;52.102;20.614;2023-07-16T10:57:52;7.68;;;5.43;;
20441;SDS011;10380;52.102;20.614;2023-07-16T11:00:20;10.48;;;5.93;;
20441;SDS011;10380;52.102;20.614;2023-07-16T11:02:51;6.32;;;5.50;;
20441;SDS011;10380;52.102;20.614;2023-07-16T11:05:19;5.63;;;5.10;;
20441;SDS011;10380;52.102;20.614;2023-07-16T11:07:46;7.32;;;5.53;;
20441;SDS011;10380;52.102;20.614;2023-07-16T11:10:19;7.88;;;5.28;;
20441;SDS011;10380;52.102;20.614;2023-07-16T11:12:50;8.40;;;5.35;;
20441;SDS011;10380;52.102;20.614;2023-07-16T11:15:29;5.57;;;4.93;;
20441;SDS011;10380;52.102;20.614;2023-07-16T11:18:03;6.43;;;4.97;;
20441;SDS011;10380;52.102;20.614;2023-07-16T11:20:30;7.05;;;4.80;;
20441;SDS011;10380;52.102;20.614;2023-07-16T11:23:00;5.13;;;4.68;;
20441;SDS011;10380;52.102;20.614;2023-07-16T11:25:28;8.05;;;4.85;;
20441;SDS011;10380;52.102;20.614;2023-07-16T11:27:55;4.85;;;4.13;;
20441;SDS011;10380;52.102;20.614;2023-07-16T11:30:23;6.10;;;4.30;;
20441;SDS011;10380;52.102;20.614;2023-07-16T11:32:51;5.25;;;4.75;;
20441;SDS011;10380;52.102;20.614;2023-07-16T11:35:19;7.72;;;4.85;;
20441;SDS011;10380;52.102;20.614;2023-07-16T11:37:46;4.80;;;3.65;;
20441;SDS011;10380;52.102;20.614;2023-07-16T11:40:15;4.40;;;4.00;;
20441;SDS011;10380;52.102;20.614;2023-07-16T11:42:43;4.60;;;3.78;;
20441;SDS011;10380;52.102;20.614;2023-07-16T11:45:31;4.55;;;4.10;;
20441;SDS011;10380;52.102;20.614;2023-07-16T11:47:57;8.88;;;4.68;;
20441;SDS011;10380;52.102;20.614;2023-07-16T11:50:26;4.82;;;3.83;;
20441;SDS011;10380;52.102;20.614;2023-07-16T11:52:53;4.85;;;3.90;;
20441;SDS011;10380;52.102;20.614;2023-07-16T11:55:20;4.63;;;3.60;;
20441;SDS011;10380;52.102;20.614;2023-07-16T11:57:48;5.00;;;4.20;;
20441;SDS011;10380;52.102;20.614;2023-07-16T12:00:14;3.80;;;3.40;;
20441;SDS011;10380;52.102;20.614;2023-07-16T12:02:43;6.40;;;3.95;;
20441;SDS011;10380;52.102;20.614;2023-07-16T12:05:17;4.82;;;3.13;;
20441;SDS011;10380;52.102;20.614;2023-07-16T12:07:45;3.97;;;3.40;;
20441;SDS011;10380;52.102;20.614;2023-07-16T12:10:12;6.25;;;2.88;;
20441;SDS011;10380;52.102;20.614;2023-07-16T12:12:39;6.20;;;3.20;;
20441;SDS011;10380;52.102;20.614;2023-07-16T12:15:08;4.18;;;3.05;;
20441;SDS011;10380;52.102;20.614;2023-07-16T12:17:36;4.13;;;3.13;;
20441;SDS011;10380;52.102;20.614;2023-07-16T12:20:03;3.58;;;3.00;;
20441;SDS011;10380;52.102;20.614;2023-07-16T12:22:30;5.32;;;3.10;;
20441;SDS011;10380;52.102;20.614;2023-07-16T12:24:58;4.10;;;2.80;;
20441;SDS011;10380;52.102;20.614;2023-07-16T12:27:24;4.07;;;2.75;;
20441;SDS011;10380;52.102;20.614;2023-07-16T12:29:52;3.97;;;2.90;;
20441;SDS011;10380;52.102;20.614;2023-07-16T12:32:19;3.05;;;2.67;;
20441;SDS011;10380;52.102;20.614;2023-07-16T12:34:46;3.10;;;2.80;;
20441;SDS011;10380;52.102;20.614;2023-07-16T12:37:13;2.95;;;2.15;;
20441;SDS011;10380;52.102;20.614;2023-07-16T12:39:40;2.45;;;2.03;;
20441;SDS011;10380;52.102;20.614;2023-07-16T12:42:07;6.03;;;2.88;;
20441;SDS011;10380;52.102;20.614;2023-07-16T12:44:34;3.30;;;2.35;;
20441;SDS011;10380;52.102;20.614;2023-07-16T12:47:01;7.03;;;2.65;;
20441;SDS011;10380;52.102;20.614;2023-07-16T12:49:28;2.90;;;2.25;;
20441;SDS011;10380;52.102;20.614;2023-07-16T12:51:55;3.50;;;2.22;;
20441;SDS011;10380;52.102;20.614;2023-07-16T12:54:22;3.65;;;2.00;;
20441;SDS011;10380;52.102;20.614;2023-07-16T12:56:49;7.85;;;2.33;;
20441;SDS011;10380;52.102;20.614;2023-07-16T12:59:16;2.60;;;2.40;;
20441;SDS011;10380;52.102;20.614;2023-07-16T13:01:43;5.60;;;2.40;;
20441;SDS011;10380;52.102;20.614;2023-07-16T13:04:10;2.60;;;2.40;;
20441;SDS011;10380;52.102;20.614;2023-07-16T13:06:37;2.13;;;1.77;;
20441;SDS011;10380;52.102;20.614;2023-07-16T13:09:04;2.85;;;2.40;;
20441;SDS011;10380;52.102;20.614;2023-07-16T13:11:31;5.82;;;2.20;;
20441;SDS011;10380;52.102;20.614;2023-07-16T13:13:58;4.05;;;2.47;;
20441;SDS011;10380;52.102;20.614;2023-07-16T13:16:25;2.60;;;2.30;;
20441;SDS011;10380;52.102;20.614;2023-07-16T13:18:52;2.40;;;2.00;;
20441;SDS011;10380;52.102;20.614;2023-07-16T13:21:19;2.75;;;2.45;;
20441;SDS011;10380;52.102;20.614;2023-07-16T13:23:46;4.88;;;2.25;;
20441;SDS011;10380;52.102;20.614;2023-07-16T13:26:13;2.35;;;2.15;;
20441;SDS011;10380;52.102;20.614;2023-07-16T13:28:40;5.25;;;2.30;;
20441;SDS011;10380;52.102;20.614;2023-07-16T13:31:07;4.65;;;2.42;;
20441;SDS011;10380;52.102;20.614;2023-07-16T13:33:34;3.28;;;2.55;;
20441;SDS011;10380;52.102;20.614;2023-07-16T13:36:02;2.30;;;1.90;;
20441;SDS011;10380;52.102;20.614;2023-07-16T13:38:30;2.58;;;2.38;;
20441;SDS011;10380;52.102;20.614;2023-07-16T13:40:57;5.53;;;2.13;;
20441;SDS011;10380;52.102;20.614;2023-07-16T13:43:24;2.92;;;2.25;;
20441;SDS011;10380;52.102;20.614;2023-07-16T13:45:51;2.40;;;2.20;;
20441;SDS011;10380;52.102;20.614;2023-07-16T13:48:18;4.15;;;2.08;;
20441;SDS011;10380;52.102;20.614;2023-07-16T13:50:45;2.30;;;2.10;;
20441;SDS011;10380;52.102;20.614;2023-07-16T13:53:12;3.65;;;2.40;;
20441;SDS011;10380;52.102;20.614;2023-07-16T13:55:38;2.25;;;1.88;;
20441;SDS011;10380;52.102;20.614;2023-07-16T13:58:05;2.55;;;2.15;;
20441;SDS011;10380;52.102;20.614;2023-07-16T14:00:32;3.25;;;2.17;;
20441;SDS011;10380;52.102;20.614;2023-07-16T14:02:59;5.50;;;2.47;;
20441;SDS011;10380;52.102;20.614;2023-07-16T14:05:27;4.35;;;1.83;;
20441;SDS011;10380;52.102;20.614;2023-07-16T14:07:53;2.03;;;1.73;;
20441;SDS011;10380;52.102;20.614;2023-07-16T14:10:20;6.88;;;2.38;;
20441;SDS011;10380;52.102;20.614;2023-07-16T14:12:47;4.82;;;2.13;;
20441;SDS011;10380;52.102;20.614;2023-07-16T14:15:14;3.20;;;2.10;;
20441;SDS011;10380;52.102;20.614;2023-07-16T14:17:44;2.53;;;1.38;;
20441;SDS011;10380;52.102;20.614;2023-07-16T14:20:11;3.78;;;2.38;;
20441;SDS011;10380;52.102;20.614;2023-07-16T14:22:37;3.70;;;1.55;;
20441;SDS011;10380;52.102;20.614;2023-07-16T14:25:04;3.85;;;1.73;;
20441;SDS011;10380;52.102;20.614;2023-07-16T14:27:32;2.28;;;1.90;;
20441;SDS011;10380;52.102;20.614;2023-07-16T14:29:59;3.30;;;1.67;;
20441;SDS011;10380;52.102;20.614;2023-07-16T14:32:32;2.85;;;1.85;;
20441;SDS011;10380;52.102;20.614;2023-07-16T14:35:00;2.50;;;1.90;;
20441;SDS011;10380;52.102;20.614;2023-07-16T14:37:27;5.38;;;2.00;;
20441;SDS011;10380;52.102;20.614;2023-07-16T14:39:54;2.25;;;1.58;;
20441;SDS011;10380;52.102;20.614;2023-07-16T14:42:20;2.95;;;1.75;;
20441;SDS011;10380;52.102;20.614;2023-07-16T14:44:47;1.70;;;1.60;;
20441;SDS011;10380;52.102;20.614;2023-07-16T14:47:14;1.77;;;1.40;;
20441;SDS011;10380;52.102;20.614;2023-07-16T14:49:41;2.13;;;1.40;;
20441;SDS011;10380;52.102;20.614;2023-07-16T14:52:08;3.60;;;1.35;;
20441;SDS011;10380;52.102;20.614;2023-07-16T14:54:35;2.58;;;1.35;;